sensor_id;sensor_type;location;lat;lon;timestamp;P1;durP1;ratioP1;P2;durP2;ratioP2
25946;SDS011;13745;51.470;9.894;2023-06-14T00:01:22;3.20;;;2.17;;
25946;SDS011;13745;51.470;9.894;2023-06-14T00:04:07;5.22;;;2.17;;
25946;SDS011;13745;51.470;9.894;2023-06-14T00:06:53;6.13;;;2.28;;
25946;SDS011;13745;51.470;9.894;2023-06-14T00:09:40;5.60;;;2.22;;
25946;SDS011;13745;51.470;9.894;2023-06-14T00:12:27;2.97;;;2.17;;
25946;SDS011;13745;51.470;9.894;2023-06-14T00:15:12;4.28;;;2.17;;
25946;SDS011;13745;51.470;9.894;2023-06-14T00:17:57;4.78;;;2.70;;
25946;SDS011;13745;51.470;9.894;2023-06-14T00:20:44;2.70;;;1.92;;
25946;SDS011;13745;51.470;9.894;2023-06-14T00:23:30;10.95;;;2.30;;
25946;SDS011;13745;51.470;9.894;2023-06-14T00:26:15;3.25;;;2.13;;
25946;SDS011;13745;51.470;9.894;2023-06-14T00:29:03;2.45;;;1.95;;
25946;SDS011;13745;51.470;9.894;2023-06-14T00:31:48;2.63;;;1.90;;
25946;SDS011;13745;51.470;9.894;2023-06-14T00:34:33;2.70;;;2.33;;
25946;SDS011;13745;51.470;9.894;2023-06-14T00:37:18;4.47;;;2.15;;
25946;SDS011;13745;51.470;9.894;2023-06-14T00:40:04;3.30;;;1.92;;
25946;SDS011;13745;51.470;9.894;2023-06-14T00:42:50;5.60;;;2.63;;
25946;SDS011;13745;51.470;9.894;2023-06-14T00:45:36;4.00;;;2.13;;
25946;SDS011;13745;51.470;9.894;2023-06-14T00:48:21;7.55;;;2.30;;
25946;SDS011;13745;51.470;9.894;2023-06-14T00:51:07;4.10;;;2.13;;
25946;SDS011;13745;51.470;9.894;2023-06-14T00:53:53;4.80;;;2.08;;
25946;SDS011;13745;51.470;9.894;2023-06-14T00:56:38;6.20;;;2.40;;
25946;SDS011;13745;51.470;9.894;2023-06-14T00:59:25;3.83;;;2.00;;
25946;SDS011;13745;51.470;9.894;2023-06-14T01:02:12;4.22;;;2.47;;
25946;SDS011;13745;51.470;9.894;2023-06-14T01:04:58;3.33;;;1.85;;
25946;SDS011;13745;51.470;9.894;2023-06-14T01:07:53;2.20;;;2.00;;
25946;SDS011;13745;51.470;9.894;2023-06-14T01:10:51;4.35;;;3.30;;
25946;SDS011;13745;51.470;9.894;2023-06-14T01:13:42;3.33;;;2.45;;
25946;SDS011;13745;51.470;9.894;2023-06-14T01:16:30;3.70;;;2.20;;
25946;SDS011;13745;51.470;9.894;2023-06-14T01:19:17;2.33;;;1.73;;
25946;SDS011;13745;51.470;9.894;2023-06-14T01:22:03;8.77;;;2.05;;
25946;SDS011;13745;51.470;9.894;2023-06-14T01:24:50;4.00;;;1.85;;
25946;SDS011;13745;51.470;9.894;2023-06-14T01:27:38;7.78;;;2.58;;
25946;SDS011;13745;51.470;9.894;2023-06-14T01:30:24;2.90;;;1.98;;
25946;SDS011;13745;51.470;9.894;2023-06-14T01:33:11;2.50;;;1.98;;
25946;SDS011;13745;51.470;9.894;2023-06-14T01:35:57;4.90;;;2.05;;
25946;SDS011;13745;51.470;9.894;2023-06-14T01:38:43;4.80;;;2.00;;
25946;SDS011;13745;51.470;9.894;2023-06-14T01:41:31;4.55;;;1.80;;
25946;SDS011;13745;51.470;9.894;2023-06-14T01:44:17;4.85;;;2.35;;
25946;SDS011;13745;51.470;9.894;2023-06-14T01:47:05;5.70;;;2.15;;
25946;SDS011;13745;51.470;9.894;2023-06-14T01:49:50;4.32;;;2.10;;
25946;SDS011;13745;51.470;9.894;2023-06-14T01:52:36;4.28;;;2.30;;
25946;SDS011;13745;51.470;9.894;2023-06-14T01:55:21;2.63;;;1.77;;
25946;SDS011;13745;51.470;9.894;2023-06-14T01:58:09;5.05;;;2.10;;
25946;SDS011;13745;51.470;9.894;2023-06-14T02:00:55;3.42;;;1.90;;
25946;SDS011;13745;51.470;9.894;2023-06-14T02:03:40;3.55;;;2.03;;
25946;SDS011;13745;51.470;9.894;2023-06-14T02:06:26;2.38;;;2.10;;
25946;SDS011;13745;51.470;9.894;2023-06-14T02:09:11;3.67;;;2.20;;
25946;SDS011;13745;51.470;9.894;2023-06-14T02:11:57;4.57;;;2.05;;
25946;SDS011;13745;51.470;9.894;2023-06-14T02:14:45;3.80;;;1.90;;
25946;SDS011;13745;51.470;9.894;2023-06-14T02:17:31;11.45;;;2.10;;
25946;SDS011;13745;51.470;9.894;2023-06-14T02:20:16;5.03;;;1.98;;
25946;SDS011;13745;51.470;9.894;2023-06-14T02:23:01;6.55;;;2.10;;
25946;SDS011;13745;51.470;9.894;2023-06-14T02:25:49;4.78;;;2.00;;
25946;SDS011;13745;51.470;9.894;2023-06-14T02:28:34;2.55;;;2.28;;
25946;SDS011;13745;51.470;9.894;2023-06-14T02:31:21;3.45;;;2.05;;
25946;SDS011;13745;51.470;9.894;2023-06-14T02:34:06;5.85;;;1.75;;
25946;SDS011;13745;51.470;9.894;2023-06-14T02:36:53;5.47;;;1.90;;
25946;SDS011;13745;51.470;9.894;2023-06-14T02:39:39;3.67;;;2.13;;
25946;SDS011;13745;51.470;9.894;2023-06-14T02:42:24;2.33;;;1.83;;
25946;SDS011;13745;51.470;9.894;2023-06-14T02:45:09;3.80;;;1.67;;
25946;SDS011;13745;51.470;9.894;2023-06-14T02:47:55;7.88;;;1.92;;
25946;SDS011;13745;51.470;9.894;2023-06-14T02:50:41;2.70;;;1.75;;
25946;SDS011;13745;51.470;9.894;2023-06-14T02:53:26;2.70;;;1.80;;
25946;SDS011;13745;51.470;9.894;2023-06-14T02:56:11;3.95;;;1.88;;
25946;SDS011;13745;51.470;9.894;2023-06-14T02:58:57;2.60;;;2.08;;
25946;SDS011;13745;51.470;9.894;2023-06-14T03:01:44;3.58;;;2.03;;
25946;SDS011;13745;51.470;9.894;2023-06-14T03:04:33;2.67;;;1.80;;
25946;SDS011;13745;51.470;9.894;2023-06-14T03:07:22;5.25;;;1.80;;
25946;SDS011;13745;51.470;9.894;2023-06-14T03:10:10;2.10;;;1.48;;
25946;SDS011;13745;51.470;9.894;2023-06-14T03:12:58;3.38;;;2.00;;
25946;SDS011;13745;51.470;9.894;2023-06-14T03:15:44;2.95;;;1.98;;
25946;SDS011;13745;51.470;9.894;2023-06-14T03:18:30;3.42;;;1.50;;
25946;SDS011;13745;51.470;9.894;2023-06-14T03:21:20;5.70;;;2.08;;
25946;SDS011;13745;51.470;9.894;2023-06-14T03:24:07;3.17;;;1.75;;
25946;SDS011;13745;51.470;9.894;2023-06-14T03:26:53;4.13;;;2.00;;
25946;SDS011;13745;51.470;9.894;2023-06-14T03:29:39;8.63;;;2.05;;
25946;SDS011;13745;51.470;9.894;2023-06-14T03:32:25;3.40;;;2.03;;
25946;SDS011;13745;51.470;9.894;2023-06-14T03:35:10;3.78;;;1.85;;
25946;SDS011;13745;51.470;9.894;2023-06-14T03:38:02;3.67;;;2.30;;
25946;SDS011;13745;51.470;9.894;2023-06-14T03:40:48;2.15;;;1.60;;
25946;SDS011;13745;51.470;9.894;2023-06-14T03:43:33;4.68;;;1.65;;
25946;SDS011;13745;51.470;9.894;2023-06-14T03:46:19;2.78;;;1.80;;
25946;SDS011;13745;51.470;9.894;2023-06-14T03:49:05;4.75;;;1.70;;
25946;SDS011;13745;51.470;9.894;2023-06-14T03:51:51;2.03;;;1.80;;
25946;SDS011;13745;51.470;9.894;2023-06-14T03:54:39;1.98;;;1.60;;
25946;SDS011;13745;51.470;9.894;2023-06-14T03:57:29;3.78;;;1.80;;
25946;SDS011;13745;51.470;9.894;2023-06-14T04:00:15;2.15;;;1.85;;
25946;SDS011;13745;51.470;9.894;2023-06-14T04:03:02;2.25;;;1.88;;
25946;SDS011;13745;51.470;9.894;2023-06-14T04:05:48;6.20;;;2.05;;
25946;SDS011;13745;51.470;9.894;2023-06-14T04:08:35;1.90;;;1.70;;
25946;SDS011;13745;51.470;9.894;2023-06-14T04:11:22;2.15;;;1.95;;
25946;SDS011;13745;51.470;9.894;2023-06-14T04:14:09;3.85;;;2.25;;
25946;SDS011;13745;51.470;9.894;2023-06-14T04:16:55;2.60;;;1.90;;
25946;SDS011;13745;51.470;9.894;2023-06-14T04:19:41;2.70;;;1.95;;
25946;SDS011;13745;51.470;9.894;2023-06-14T04:22:26;2.55;;;1.85;;
25946;SDS011;13745;51.470;9.894;2023-06-14T04:25:14;3.55;;;2.13;;
25946;SDS011;13745;51.470;9.894;2023-06-14T04:28:02;3.17;;;1.58;;
25946;SDS011;13745;51.470;9.894;2023-06-14T04:30:49;2.17;;;1.98;;
25946;SDS011;13745;51.470;9.894;2023-06-14T04:33:36;2.35;;;1.98;;
25946;SDS011;13745;51.470;9.894;2023-06-14T04:36:30;3.10;;;2.28;;
25946;SDS011;13745;51.470;9.894;2023-06-14T04:39:16;2.80;;;2.05;;
25946;SDS011;13745;51.470;9.894;2023-06-14T04:42:02;2.80;;;1.98;;
25946;SDS011;13745;51.470;9.894;2023-06-14T04:44:51;4.32;;;1.83;;
25946;SDS011;13745;51.470;9.894;2023-06-14T04:47:40;6.10;;;1.90;;
25946;SDS011;13745;51.470;9.894;2023-06-14T04:50:26;4.30;;;2.42;;
25946;SDS011;13745;51.470;9.894;2023-06-14T04:53:13;2.30;;;2.00;;
25946;SDS011;13745;51.470;9.894;2023-06-14T04:55:58;2.75;;;1.83;;
25946;SDS011;13745;51.470;9.894;2023-06-14T04:58:44;2.85;;;1.95;;
25946;SDS011;13745;51.470;9.894;2023-06-14T05:01:32;4.32;;;2.08;;
25946;SDS011;13745;51.470;9.894;2023-06-14T05:04:18;4.25;;;2.10;;
25946;SDS011;13745;51.470;9.894;2023-06-14T05:07:06;2.85;;;2.10;;
25946;SDS011;13745;51.470;9.894;2023-06-14T05:09:52;3.67;;;1.80;;
25946;SDS011;13745;51.470;9.894;2023-06-14T05:12:38;1.80;;;1.60;;
25946;SDS011;13745;51.470;9.894;2023-06-14T05:15:25;3.08;;;1.92;;
25946;SDS011;13745;51.470;9.894;2023-06-14T05:18:12;3.92;;;1.70;;
25946;SDS011;13745;51.470;9.894;2023-06-14T05:20:58;2.45;;;2.08;;
25946;SDS011;13745;51.470;9.894;2023-06-14T05:23:43;2.33;;;1.60;;
25946;SDS011;13745;51.470;9.894;2023-06-14T05:26:29;1.95;;;1.75;;
25946;SDS011;13745;51.470;9.894;2023-06-14T05:29:14;4.68;;;1.88;;
25946;SDS011;13745;51.470;9.894;2023-06-14T05:31:59;2.03;;;1.75;;
25946;SDS011;13745;51.470;9.894;2023-06-14T05:34:46;11.07;;;2.03;;
25946;SDS011;13745;51.470;9.894;2023-06-14T05:37:31;5.97;;;2.15;;
25946;SDS011;13745;51.470;9.894;2023-06-14T05:40:16;3.03;;;1.88;;
25946;SDS011;13745;51.470;9.894;2023-06-14T05:43:01;4.95;;;2.17;;
25946;SDS011;13745;51.470;9.894;2023-06-14T05:45:46;3.05;;;2.38;;
25946;SDS011;13745;51.470;9.894;2023-06-14T05:48:31;2.58;;;1.98;;
25946;SDS011;13745;51.470;9.894;2023-06-14T05:51:18;4.60;;;1.85;;
25946;SDS011;13745;51.470;9.894;2023-06-14T05:54:03;2.58;;;1.63;;
25946;SDS011;13745;51.470;9.894;2023-06-14T05:56:48;4.28;;;2.28;;
25946;SDS011;13745;51.470;9.894;2023-06-14T05:59:33;5.47;;;1.77;;
25946;SDS011;13745;51.470;9.894;2023-06-14T06:02:19;2.95;;;1.75;;
25946;SDS011;13745;51.470;9.894;2023-06-14T06:05:04;4.40;;;1.98;;
25946;SDS011;13745;51.470;9.894;2023-06-14T06:07:51;2.53;;;1.70;;
25946;SDS011;13745;51.470;9.894;2023-06-14T06:10:37;2.70;;;2.00;;
25946;SDS011;13745;51.470;9.894;2023-06-14T06:13:22;5.25;;;1.73;;
25946;SDS011;13745;51.470;9.894;2023-06-14T06:16:07;4.25;;;1.88;;
25946;SDS011;13745;51.470;9.894;2023-06-14T06:18:53;3.90;;;1.92;;
25946;SDS011;13745;51.470;9.894;2023-06-14T06:21:38;2.42;;;2.05;;
25946;SDS011;13745;51.470;9.894;2023-06-14T06:24:24;2.95;;;2.00;;
25946;SDS011;13745;51.470;9.894;2023-06-14T06:27:10;5.40;;;2.08;;
25946;SDS011;13745;51.470;9.894;2023-06-14T06:29:56;5.13;;;2.20;;
25946;SDS011;13745;51.470;9.894;2023-06-14T06:32:41;13.02;;;2.35;;
25946;SDS011;13745;51.470;9.894;2023-06-14T06:35:26;3.97;;;2.05;;
25946;SDS011;13745;51.470;9.894;2023-06-14T06:38:12;3.08;;;2.47;;
25946;SDS011;13745;51.470;9.894;2023-06-14T06:40:58;3.10;;;1.98;;
25946;SDS011;13745;51.470;9.894;2023-06-14T06:43:44;5.32;;;2.90;;
25946;SDS011;13745;51.470;9.894;2023-06-14T06:46:29;3.78;;;2.40;;
25946;SDS011;13745;51.470;9.894;2023-06-14T06:49:14;3.05;;;2.00;;
25946;SDS011;13745;51.470;9.894;2023-06-14T06:51:59;3.67;;;2.47;;
25946;SDS011;13745;51.470;9.894;2023-06-14T06:54:45;3.53;;;2.22;;
25946;SDS011;13745;51.470;9.894;2023-06-14T06:57:32;5.63;;;2.90;;
25946;SDS011;13745;51.470;9.894;2023-06-14T07:00:17;4.35;;;2.30;;
25946;SDS011;13745;51.470;9.894;2023-06-14T07:03:03;3.22;;;2.80;;
25946;SDS011;13745;51.470;9.894;2023-06-14T07:05:48;3.70;;;2.30;;
25946;SDS011;13745;51.470;9.894;2023-06-14T07:08:33;4.70;;;2.90;;
25946;SDS011;13745;51.470;9.894;2023-06-14T07:11:19;3.42;;;2.40;;
25946;SDS011;13745;51.470;9.894;2023-06-14T07:14:06;6.80;;;2.70;;
25946;SDS011;13745;51.470;9.894;2023-06-14T07:16:51;2.55;;;2.33;;
25946;SDS011;13745;51.470;9.894;2023-06-14T07:19:36;4.60;;;2.78;;
25946;SDS011;13745;51.470;9.894;2023-06-14T07:22:23;3.03;;;2.50;;
25946;SDS011;13745;51.470;9.894;2023-06-14T07:25:08;3.05;;;2.53;;
25946;SDS011;13745;51.470;9.894;2023-06-14T07:27:56;3.83;;;3.10;;
25946;SDS011;13745;51.470;9.894;2023-06-14T07:30:42;3.03;;;2.63;;
25946;SDS011;13745;51.470;9.894;2023-06-14T07:33:28;4.75;;;2.83;;
25946;SDS011;13745;51.470;9.894;2023-06-14T07:36:13;3.85;;;2.58;;
25946;SDS011;13745;51.470;9.894;2023-06-14T07:38:59;3.80;;;2.60;;
25946;SDS011;13745;51.470;9.894;2023-06-14T07:41:47;2.35;;;2.13;;
25946;SDS011;13745;51.470;9.894;2023-06-14T07:44:32;7.65;;;2.75;;
25946;SDS011;13745;51.470;9.894;2023-06-14T07:47:18;3.45;;;2.30;;
25946;SDS011;13745;51.470;9.894;2023-06-14T07:50:04;4.53;;;2.08;;
25946;SDS011;13745;51.470;9.894;2023-06-14T07:52:51;7.63;;;2.95;;
25946;SDS011;13745;51.470;9.894;2023-06-14T07:55:36;5.93;;;2.30;;
25946;SDS011;13745;51.470;9.894;2023-06-14T07:58:22;5.03;;;2.35;;
25946;SDS011;13745;51.470;9.894;2023-06-14T08:01:08;5.10;;;2.40;;
25946;SDS011;13745;51.470;9.894;2023-06-14T08:03:55;3.25;;;2.60;;
25946;SDS011;13745;51.470;9.894;2023-06-14T08:06:40;3.88;;;2.97;;
25946;SDS011;13745;51.470;9.894;2023-06-14T08:09:28;3.72;;;2.67;;
25946;SDS011;13745;51.470;9.894;2023-06-14T08:12:13;2.92;;;2.60;;
25946;SDS011;13745;51.470;9.894;2023-06-14T08:14:58;3.40;;;2.70;;
25946;SDS011;13745;51.470;9.894;2023-06-14T08:17:44;3.10;;;2.00;;
25946;SDS011;13745;51.470;9.894;2023-06-14T08:20:30;6.90;;;2.75;;
25946;SDS011;13745;51.470;9.894;2023-06-14T08:23:16;9.00;;;2.60;;
25946;SDS011;13745;51.470;9.894;2023-06-14T08:26:02;2.50;;;2.22;;
25946;SDS011;13745;51.470;9.894;2023-06-14T08:28:48;3.78;;;2.40;;
25946;SDS011;13745;51.470;9.894;2023-06-14T08:31:33;2.40;;;2.10;;
25946;SDS011;13745;51.470;9.894;2023-06-14T08:34:18;3.08;;;2.33;;
25946;SDS011;13745;51.470;9.894;2023-06-14T08:37:05;4.45;;;2.38;;
25946;SDS011;13745;51.470;9.894;2023-06-14T08:39:50;3.42;;;2.20;;
25946;SDS011;13745;51.470;9.894;2023-06-14T08:42:35;3.60;;;1.92;;
25946;SDS011;13745;51.470;9.894;2023-06-14T08:45:22;3.90;;;2.35;;
25946;SDS011;13745;51.470;9.894;2023-06-14T08:48:08;4.28;;;2.20;;
25946;SDS011;13745;51.470;9.894;2023-06-14T08:50:53;4.05;;;2.42;;
25946;SDS011;13745;51.470;9.894;2023-06-14T08:53:46;2.42;;;2.22;;
25946;SDS011;13745;51.470;9.894;2023-06-14T08:56:37;6.65;;;2.50;;
25946;SDS011;13745;51.470;9.894;2023-06-14T08:59:25;8.15;;;3.00;;
25946;SDS011;13745;51.470;9.894;2023-06-14T09:02:11;2.92;;;2.58;;
25946;SDS011;13745;51.470;9.894;2023-06-14T09:04:56;8.65;;;2.50;;
25946;SDS011;13745;51.470;9.894;2023-06-14T09:07:44;2.40;;;2.20;;
25946;SDS011;13745;51.470;9.894;2023-06-14T09:10:34;2.83;;;1.98;;
25946;SDS011;13745;51.470;9.894;2023-06-14T09:13:21;2.75;;;2.03;;
25946;SDS011;13745;51.470;9.894;2023-06-14T09:16:06;2.25;;;1.92;;
25946;SDS011;13745;51.470;9.894;2023-06-14T09:18:51;2.53;;;1.90;;
25946;SDS011;13745;51.470;9.894;2023-06-14T09:21:36;3.80;;;2.28;;
25946;SDS011;13745;51.470;9.894;2023-06-14T09:24:23;4.03;;;2.20;;
25946;SDS011;13745;51.470;9.894;2023-06-14T09:27:15;7.00;;;1.98;;
25946;SDS011;13745;51.470;9.894;2023-06-14T09:30:01;4.88;;;2.00;;
25946;SDS011;13745;51.470;9.894;2023-06-14T09:32:47;3.63;;;1.88;;
25946;SDS011;13745;51.470;9.894;2023-06-14T09:35:32;1.77;;;1.67;;
25946;SDS011;13745;51.470;9.894;2023-06-14T09:38:18;2.92;;;1.95;;
25946;SDS011;13745;51.470;9.894;2023-06-14T09:41:04;3.50;;;1.80;;
25946;SDS011;13745;51.470;9.894;2023-06-14T09:43:50;2.80;;;1.90;;
25946;SDS011;13745;51.470;9.894;2023-06-14T09:46:36;2.22;;;2.00;;
25946;SDS011;13745;51.470;9.894;2023-06-14T09:49:21;2.72;;;2.00;;
25946;SDS011;13745;51.470;9.894;2023-06-14T09:52:09;2.08;;;1.88;;
25946;SDS011;13745;51.470;9.894;2023-06-14T09:54:56;3.10;;;2.00;;
25946;SDS011;13745;51.470;9.894;2023-06-14T09:57:43;2.78;;;2.03;;
25946;SDS011;13745;51.470;9.894;2023-06-14T10:00:33;3.17;;;1.83;;
25946;SDS011;13745;51.470;9.894;2023-06-14T10:03:21;3.28;;;1.88;;
25946;SDS011;13745;51.470;9.894;2023-06-14T10:06:13;6.60;;;1.85;;
25946;SDS011;13745;51.470;9.894;2023-06-14T10:08:59;5.97;;;1.98;;
25946;SDS011;13745;51.470;9.894;2023-06-14T10:11:44;4.00;;;2.08;;
25946;SDS011;13745;51.470;9.894;2023-06-14T10:14:30;3.40;;;1.90;;
25946;SDS011;13745;51.470;9.894;2023-06-14T10:17:20;3.03;;;1.73;;
25946;SDS011;13745;51.470;9.894;2023-06-14T10:20:15;4.82;;;2.03;;
25946;SDS011;13745;51.470;9.894;2023-06-14T10:23:07;7.90;;;2.65;;
25946;SDS011;13745;51.470;9.894;2023-06-14T10:25:58;3.15;;;1.65;;
25946;SDS011;13745;51.470;9.894;2023-06-14T10:28:44;2.08;;;1.70;;
25946;SDS011;13745;51.470;9.894;2023-06-14T10:31:41;3.42;;;2.10;;
25946;SDS011;13745;51.470;9.894;2023-06-14T10:34:28;2.25;;;1.95;;
25946;SDS011;13745;51.470;9.894;2023-06-14T10:37:14;2.75;;;1.80;;
25946;SDS011;13745;51.470;9.894;2023-06-14T10:40:01;6.20;;;1.88;;
25946;SDS011;13745;51.470;9.894;2023-06-14T10:42:51;4.20;;;2.03;;
25946;SDS011;13745;51.470;9.894;2023-06-14T10:45:36;3.22;;;1.90;;
25946;SDS011;13745;51.470;9.894;2023-06-14T10:48:29;2.35;;;1.73;;
25946;SDS011;13745;51.470;9.894;2023-06-14T10:51:19;3.30;;;1.85;;
25946;SDS011;13745;51.470;9.894;2023-06-14T10:54:05;3.75;;;2.05;;
25946;SDS011;13745;51.470;9.894;2023-06-14T10:56:56;2.28;;;2.05;;
25946;SDS011;13745;51.470;9.894;2023-06-14T10:59:42;2.00;;;1.80;;
25946;SDS011;13745;51.470;9.894;2023-06-14T11:02:39;1.70;;;1.60;;
25946;SDS011;13745;51.470;9.894;2023-06-14T11:05:41;2.17;;;1.90;;
25946;SDS011;13745;51.470;9.894;2023-06-14T11:08:40;2.08;;;1.88;;
25946;SDS011;13745;51.470;9.894;2023-06-14T11:11:49;3.97;;;1.67;;
25946;SDS011;13745;51.470;9.894;2023-06-14T11:14:36;2.33;;;1.92;;
25946;SDS011;13745;51.470;9.894;2023-06-14T11:17:21;2.72;;;1.92;;
25946;SDS011;13745;51.470;9.894;2023-06-14T11:20:09;2.88;;;1.95;;
25946;SDS011;13745;51.470;9.894;2023-06-14T11:22:59;3.38;;;1.95;;
25946;SDS011;13745;51.470;9.894;2023-06-14T11:25:50;4.75;;;1.98;;
25946;SDS011;13745;51.470;9.894;2023-06-14T11:28:36;2.15;;;1.48;;
25946;SDS011;13745;51.470;9.894;2023-06-14T11:31:23;9.60;;;2.03;;
25946;SDS011;13745;51.470;9.894;2023-06-14T11:34:08;6.80;;;2.05;;
25946;SDS011;13745;51.470;9.894;2023-06-14T11:36:54;2.75;;;2.00;;
25946;SDS011;13745;51.470;9.894;2023-06-14T11:39:43;3.55;;;1.80;;
25946;SDS011;13745;51.470;9.894;2023-06-14T11:42:30;3.63;;;1.90;;
25946;SDS011;13745;51.470;9.894;2023-06-14T11:45:15;2.22;;;1.50;;
25946;SDS011;13745;51.470;9.894;2023-06-14T11:48:00;3.28;;;1.48;;
25946;SDS011;13745;51.470;9.894;2023-06-14T11:50:49;3.42;;;1.50;;
25946;SDS011;13745;51.470;9.894;2023-06-14T11:53:35;2.42;;;1.48;;
25946;SDS011;13745;51.470;9.894;2023-06-14T11:56:20;3.28;;;1.60;;
25946;SDS011;13745;51.470;9.894;2023-06-14T11:59:07;2.85;;;1.70;;
25946;SDS011;13745;51.470;9.894;2023-06-14T12:01:52;1.77;;;1.30;;
25946;SDS011;13745;51.470;9.894;2023-06-14T12:04:40;2.83;;;1.50;;
25946;SDS011;13745;51.470;9.894;2023-06-14T12:07:25;2.03;;;1.70;;
25946;SDS011;13745;51.470;9.894;2023-06-14T12:10:10;1.98;;;1.52;;
25946;SDS011;13745;51.470;9.894;2023-06-14T12:12:57;2.05;;;1.13;;
25946;SDS011;13745;51.470;9.894;2023-06-14T12:15:44;2.80;;;1.55;;
25946;SDS011;13745;51.470;9.894;2023-06-14T12:18:33;1.30;;;1.10;;
25946;SDS011;13745;51.470;9.894;2023-06-14T12:21:22;2.75;;;1.40;;
25946;SDS011;13745;51.470;9.894;2023-06-14T12:24:08;4.68;;;1.48;;
25946;SDS011;13745;51.470;9.894;2023-06-14T12:26:57;3.05;;;1.30;;
25946;SDS011;13745;51.470;9.894;2023-06-14T12:29:43;1.35;;;1.25;;
25946;SDS011;13745;51.470;9.894;2023-06-14T12:32:30;1.60;;;1.30;;
25946;SDS011;13745;51.470;9.894;2023-06-14T12:35:15;3.22;;;1.17;;
25946;SDS011;13745;51.470;9.894;2023-06-14T12:38:00;3.63;;;1.70;;
25946;SDS011;13745;51.470;9.894;2023-06-14T12:40:47;2.42;;;1.20;;
25946;SDS011;13745;51.470;9.894;2023-06-14T12:43:32;1.95;;;1.17;;
25946;SDS011;13745;51.470;9.894;2023-06-14T12:46:18;3.67;;;1.15;;
25946;SDS011;13745;51.470;9.894;2023-06-14T12:49:07;3.05;;;1.25;;
25946;SDS011;13745;51.470;9.894;2023-06-14T12:51:53;2.85;;;1.23;;
25946;SDS011;13745;51.470;9.894;2023-06-14T12:54:38;2.83;;;1.73;;
25946;SDS011;13745;51.470;9.894;2023-06-14T12:57:24;3.95;;;1.40;;
25946;SDS011;13745;51.470;9.894;2023-06-14T13:00:09;1.48;;;1.25;;
25946;SDS011;13745;51.470;9.894;2023-06-14T13:02:56;2.13;;;1.10;;
25946;SDS011;13745;51.470;9.894;2023-06-14T13:05:43;2.40;;;1.20;;
25946;SDS011;13745;51.470;9.894;2023-06-14T13:08:28;1.70;;;1.23;;
25946;SDS011;13745;51.470;9.894;2023-06-14T13:11:13;2.72;;;1.40;;
25946;SDS011;13745;51.470;9.894;2023-06-14T13:13:58;1.48;;;1.35;;
25946;SDS011;13745;51.470;9.894;2023-06-14T13:16:44;1.50;;;1.40;;
25946;SDS011;13745;51.470;9.894;2023-06-14T13:19:29;4.97;;;1.40;;
25946;SDS011;13745;51.470;9.894;2023-06-14T13:22:15;1.50;;;1.40;;
25946;SDS011;13745;51.470;9.894;2023-06-14T13:25:00;3.90;;;1.35;;
25946;SDS011;13745;51.470;9.894;2023-06-14T13:27:46;2.70;;;1.48;;
25946;SDS011;13745;51.470;9.894;2023-06-14T13:30:31;2.00;;;1.20;;
25946;SDS011;13745;51.470;9.894;2023-06-14T13:33:16;1.10;;;0.98;;
25946;SDS011;13745;51.470;9.894;2023-06-14T13:36:02;1.17;;;1.08;;
25946;SDS011;13745;51.470;9.894;2023-06-14T13:38:48;7.30;;;1.55;;
25946;SDS011;13745;51.470;9.894;2023-06-14T13:41:35;1.33;;;0.95;;
25946;SDS011;13745;51.470;9.894;2023-06-14T13:44:20;4.57;;;1.33;;
25946;SDS011;13745;51.470;9.894;2023-06-14T13:47:05;1.85;;;1.30;;
25946;SDS011;13745;51.470;9.894;2023-06-14T13:49:50;1.75;;;1.20;;
25946;SDS011;13745;51.470;9.894;2023-06-14T13:52:35;1.80;;;1.08;;
25946;SDS011;13745;51.470;9.894;2023-06-14T13:55:22;2.33;;;1.48;;
25946;SDS011;13745;51.470;9.894;2023-06-14T13:58:07;2.70;;;1.17;;
25946;SDS011;13745;51.470;9.894;2023-06-14T14:00:52;1.38;;;1.27;;
25946;SDS011;13745;51.470;9.894;2023-06-14T14:03:38;1.40;;;1.30;;
25946;SDS011;13745;51.470;9.894;2023-06-14T14:06:23;1.33;;;1.23;;
25946;SDS011;13745;51.470;9.894;2023-06-14T14:09:08;1.23;;;1.10;;
25946;SDS011;13745;51.470;9.894;2023-06-14T14:11:55;1.23;;;1.00;;
25946;SDS011;13745;51.470;9.894;2023-06-14T14:14:40;2.85;;;1.10;;
25946;SDS011;13745;51.470;9.894;2023-06-14T14:17:26;2.40;;;1.10;;
25946;SDS011;13745;51.470;9.894;2023-06-14T14:20:11;2.53;;;1.15;;
25946;SDS011;13745;51.470;9.894;2023-06-14T14:22:58;2.83;;;1.38;;
25946;SDS011;13745;51.470;9.894;2023-06-14T14:25:43;1.77;;;1.23;;
25946;SDS011;13745;51.470;9.894;2023-06-14T14:28:30;1.70;;;1.20;;
25946;SDS011;13745;51.470;9.894;2023-06-14T14:31:16;1.30;;;1.00;;
25946;SDS011;13745;51.470;9.894;2023-06-14T14:34:01;1.38;;;1.27;;
25946;SDS011;13745;51.470;9.894;2023-06-14T14:36:46;3.75;;;1.15;;
25946;SDS011;13745;51.470;9.894;2023-06-14T14:39:31;1.33;;;1.00;;
25946;SDS011;13745;51.470;9.894;2023-06-14T14:42:16;2.20;;;1.15;;
25946;SDS011;13745;51.470;9.894;2023-06-14T14:45:04;2.60;;;1.33;;
25946;SDS011;13745;51.470;9.894;2023-06-14T14:47:50;0.73;;;0.73;;
25946;SDS011;13745;51.470;9.894;2023-06-14T14:50:35;1.23;;;1.13;;
25946;SDS011;13745;51.470;9.894;2023-06-14T14:53:20;1.80;;;1.40;;
25946;SDS011;13745;51.470;9.894;2023-06-14T14:56:05;1.67;;;1.23;;
25946;SDS011;13745;51.470;9.894;2023-06-14T14:58:50;1.42;;;1.10;;
25946;SDS011;13745;51.470;9.894;2023-06-14T15:01:37;1.48;;;1.30;;
25946;SDS011;13745;51.470;9.894;2023-06-14T15:04:23;2.40;;;1.10;;
25946;SDS011;13745;51.470;9.894;2023-06-14T15:07:07;2.70;;;1.35;;
25946;SDS011;13745;51.470;9.894;2023-06-14T15:09:52;2.08;;;1.17;;
25946;SDS011;13745;51.470;9.894;2023-06-14T15:12:38;2.35;;;1.13;;
25946;SDS011;13745;51.470;9.894;2023-06-14T15:15:23;3.00;;;1.40;;
25946;SDS011;13745;51.470;9.894;2023-06-14T15:18:09;2.22;;;1.65;;
25946;SDS011;13745;51.470;9.894;2023-06-14T15:20:55;3.05;;;1.55;;
25946;SDS011;13745;51.470;9.894;2023-06-14T15:23:40;6.35;;;2.03;;
25946;SDS011;13745;51.470;9.894;2023-06-14T15:26:25;2.85;;;1.70;;
25946;SDS011;13745;51.470;9.894;2023-06-14T15:29:11;1.95;;;1.30;;
25946;SDS011;13745;51.470;9.894;2023-06-14T15:31:56;2.65;;;1.50;;
25946;SDS011;13745;51.470;9.894;2023-06-14T15:34:43;3.25;;;1.60;;
25946;SDS011;13745;51.470;9.894;2023-06-14T15:37:28;2.00;;;1.60;;
25946;SDS011;13745;51.470;9.894;2023-06-14T15:40:13;4.28;;;1.80;;
25946;SDS011;13745;51.470;9.894;2023-06-14T15:42:58;2.63;;;1.75;;
25946;SDS011;13745;51.470;9.894;2023-06-14T15:45:43;2.15;;;1.50;;
25946;SDS011;13745;51.470;9.894;2023-06-14T15:48:28;2.42;;;1.60;;
25946;SDS011;13745;51.470;9.894;2023-06-14T15:51:15;2.40;;;1.90;;
25946;SDS011;13745;51.470;9.894;2023-06-14T15:54:00;3.03;;;1.83;;
25946;SDS011;13745;51.470;9.894;2023-06-14T15:56:45;6.80;;;2.03;;
25946;SDS011;13745;51.470;9.894;2023-06-14T15:59:31;2.75;;;1.67;;
25946;SDS011;13745;51.470;9.894;2023-06-14T16:02:16;3.10;;;1.85;;
25946;SDS011;13745;51.470;9.894;2023-06-14T16:05:01;7.43;;;2.20;;
25946;SDS011;13745;51.470;9.894;2023-06-14T16:07:47;4.32;;;1.80;;
25946;SDS011;13745;51.470;9.894;2023-06-14T16:10:33;2.72;;;2.17;;
25946;SDS011;13745;51.470;9.894;2023-06-14T16:13:18;2.08;;;1.88;;
25946;SDS011;13745;51.470;9.894;2023-06-14T16:16:03;6.72;;;1.90;;
25946;SDS011;13745;51.470;9.894;2023-06-14T16:18:48;9.05;;;1.90;;
25946;SDS011;13745;51.470;9.894;2023-06-14T16:21:33;2.42;;;1.65;;
25946;SDS011;13745;51.470;9.894;2023-06-14T16:24:21;5.25;;;1.95;;
25946;SDS011;13745;51.470;9.894;2023-06-14T16:27:07;3.67;;;1.80;;
25946;SDS011;13745;51.470;9.894;2023-06-14T16:29:53;2.95;;;1.85;;
25946;SDS011;13745;51.470;9.894;2023-06-14T16:32:38;3.85;;;1.90;;
25946;SDS011;13745;51.470;9.894;2023-06-14T16:35:23;4.95;;;1.90;;
25946;SDS011;13745;51.470;9.894;2023-06-14T16:38:09;2.53;;;2.05;;
25946;SDS011;13745;51.470;9.894;2023-06-14T16:40:55;2.33;;;2.00;;
25946;SDS011;13745;51.470;9.894;2023-06-14T16:43:40;6.53;;;2.45;;